Time;durP1;ratioP1;P1;durP2;ratioP2;P2;SDS_P1;SDS_P2;PMS_P1;PMS_P2;Temp;Humidity;BMP_temperature;BMP_pressure;BME280_temperature;BME280_humidity;BME280_pressure;Samples;Min_cycle;Max_cycle;Signal;HPM_P1;HPM_P2
2023/10/13 00:02:01;;;;;;;11.30;3.75;;;17.00;1.00;;;;;;5014469;28;20421;-83
2023/10/13 00:04:51;;;;;;;10.35;4.20;;;17.00;1.00;;;;;;5000259;28;20438;-84
2023/10/13 00:07:39;;;;;;;7.82;3.92;;;17.00;1.00;;;;;;5013309;28;20042;-82
2023/10/13 00:10:30;;;;;;;7.25;3.38;;;17.00;1.00;;;;;;5012645;28;20050;-83
2023/10/13 00:13:19;;;;;;;7.63;3.80;;;17.00;1.00;;;;;;5014277;28;20050;-83
2023/10/13 00:16:09;;;;;;;11.15;3.58;;;17.10;1.00;;;;;;5012798;28;20050;-84
2023/10/13 00:18:59;;;;;;;8.95;3.63;;;17.20;1.00;;;;;;5000630;28;20038;-84
2023/10/13 00:21:51;;;;;;;13.15;4.60;;;17.00;1.00;;;;;;4999970;28;20055;-84
2023/10/13 00:24:45;;;;;;;10.90;4.28;;;17.00;1.00;;;;;;5014665;28;20057;-84
2023/10/13 00:33:09;;;;;;;9.00;3.90;;;16.80;1.00;;;;;;5001573;28;20107;-83
2023/10/13 00:35:58;;;;;;;7.18;3.53;;;16.70;1.00;;;;;;5011552;28;20049;-83
2023/10/13 00:38:48;;;;;;;7.75;3.85;;;16.60;1.00;;;;;;5013996;28;20052;-83
2023/10/13 00:42:50;;;;;;;9.35;3.67;;;16.70;1.00;;;;;;5014524;28;20744;-83
2023/10/13 00:44:54;;;;;;;7.82;3.80;;;16.60;1.00;;;;;;5010179;28;20050;-84
2023/10/13 00:47:49;;;;;;;12.27;4.07;;;16.60;1.00;;;;;;5010615;28;20363;-84
2023/10/13 00:50:36;;;;;;;11.98;4.53;;;16.70;1.00;;;;;;5013708;28;20132;-84
2023/10/13 00:53:33;;;;;;;9.57;3.80;;;16.80;1.00;;;;;;5014095;28;20211;-84
2023/10/13 00:56:22;;;;;;;11.15;3.80;;;16.80;1.00;;;;;;5012162;28;20487;-83
2023/10/13 00:59:10;;;;;;;9.98;3.65;;;16.80;1.00;;;;;;5016289;28;20046;-84
2023/10/13 01:02:25;;;;;;;9.27;3.38;;;16.70;1.00;;;;;;4998380;28;20057;-83
2023/10/13 01:05:19;;;;;;;9.05;4.00;;;16.50;1.00;;;;;;5001058;28;20045;-84
2023/10/13 01:08:10;;;;;;;9.93;4.03;;;16.40;1.00;;;;;;5012959;28;20107;-83
2023/10/13 01:11:07;;;;;;;12.07;4.45;;;16.30;1.00;;;;;;5014299;28;20156;-83
2023/10/13 01:13:57;;;;;;;10.93;3.58;;;16.30;1.00;;;;;;5004087;28;20141;-83
2023/10/13 01:16:45;;;;;;;7.78;3.80;;;16.30;1.00;;;;;;5008693;28;20046;-83
2023/10/13 01:19:43;;;;;;;10.18;3.92;;;16.20;1.00;;;;;;4996410;28;20042;-82
2023/10/13 01:22:33;;;;;;;8.93;3.85;;;16.20;1.00;;;;;;5014162;28;20046;-83
2023/10/13 01:25:25;;;;;;;8.13;3.70;;;16.10;1.00;;;;;;5013832;28;20208;-84
2023/10/13 01:28:17;;;;;;;9.07;4.13;;;16.00;1.00;;;;;;4999630;28;20416;-82
2023/10/13 01:31:37;;;;;;;14.32;4.22;;;15.90;1.00;;;;;;4998590;28;20509;-82
2023/10/13 01:34:33;;;;;;;13.25;3.72;;;15.80;1.00;;;;;;4995724;28;20100;-83
2023/10/13 01:37:27;;;;;;;13.38;4.32;;;15.80;1.00;;;;;;5003710;28;20495;-84
2023/10/13 01:40:20;;;;;;;8.55;3.97;;;15.80;1.00;;;;;;5012017;28;20042;-84
2023/10/13 01:43:10;;;;;;;9.32;3.88;;;15.70;1.00;;;;;;5014074;28;20566;-84
2023/10/13 01:45:58;;;;;;;10.63;4.28;;;15.80;1.00;;;;;;5004005;28;20154;-83
2023/10/13 01:48:47;;;;;;;10.88;3.85;;;15.90;1.00;;;;;;5013289;28;20069;-83
2023/10/13 01:51:39;;;;;;;9.63;3.97;;;16.00;1.00;;;;;;5014703;28;20049;-84
2023/10/13 01:54:29;;;;;;;7.95;3.30;;;16.10;1.00;;;;;;5009855;28;20053;-83
2023/10/13 01:57:24;;;;;;;9.75;3.80;;;16.20;1.00;;;;;;5014684;28;20049;-84
2023/10/13 02:00:18;;;;;;;12.30;4.05;;;16.20;1.00;;;;;;5016949;28;20064;-84
2023/10/13 02:03:16;;;;;;;8.90;4.18;;;16.20;1.00;;;;;;5011627;28;20366;-84
2023/10/13 02:06:09;;;;;;;7.47;4.03;;;16.20;1.00;;;;;;5021334;28;20046;-83
2023/10/13 02:09:05;;;;;;;12.07;3.80;;;16.10;1.00;;;;;;5020107;28;20148;-83
2023/10/13 02:11:56;;;;;;;10.90;4.47;;;16.20;1.00;;;;;;5021447;28;20045;-82
2023/10/13 02:14:46;;;;;;;15.88;3.85;;;16.30;1.00;;;;;;5022965;28;20056;-82
2023/10/13 02:17:41;;;;;;;8.05;3.83;;;16.30;1.00;;;;;;5012256;28;20048;-83
2023/10/13 02:20:41;;;;;;;9.57;4.00;;;16.30;1.00;;;;;;5026929;28;20041;-82
2023/10/13 02:23:29;;;;;;;8.50;4.55;;;16.30;1.00;;;;;;5017404;28;20042;-82
2023/10/13 02:26:30;;;;;;;16.10;4.32;;;16.10;1.00;;;;;;5027841;28;20053;-83
2023/10/13 02:29:20;;;;;;;10.60;4.78;;;16.10;1.00;;;;;;5005436;28;20109;-84
2023/10/13 02:32:18;;;;;;;13.65;4.10;;;16.00;1.00;;;;;;5002982;28;20077;-84
2023/10/13 02:35:14;;;;;;;10.05;4.13;;;15.90;1.00;;;;;;5015098;28;20041;-84
2023/10/13 02:38:10;;;;;;;7.97;4.10;;;15.90;1.00;;;;;;5017192;28;20549;-83
2023/10/13 02:41:05;;;;;;;12.77;4.55;;;15.80;1.00;;;;;;5018126;28;20045;-84
2023/10/13 02:43:56;;;;;;;12.27;3.78;;;15.80;1.00;;;;;;5009461;28;20081;-83
2023/10/13 02:46:50;;;;;;;10.50;4.78;;;15.80;1.00;;;;;;5003244;28;20049;-84
2023/10/13 02:49:47;;;;;;;8.10;4.15;;;15.90;1.00;;;;;;5016289;28;20368;-84
2023/10/13 02:52:38;;;;;;;9.48;3.97;;;15.80;1.00;;;;;;5016615;28;20386;-83
2023/10/13 02:55:25;;;;;;;11.07;4.35;;;15.80;1.00;;;;;;4999511;28;20061;-83
2023/10/13 02:58:14;;;;;;;9.98;4.43;;;15.90;1.00;;;;;;5013807;28;20473;-83
2023/10/13 03:01:20;;;;;;;9.68;3.97;;;15.90;1.00;;;;;;5015904;28;20068;-83
2023/10/13 03:04:12;;;;;;;6.13;4.13;;;15.90;1.00;;;;;;5011752;28;20061;-82
2023/10/13 03:07:02;;;;;;;15.27;4.70;;;15.80;1.00;;;;;;5015429;28;20037;-82
2023/10/13 03:09:51;;;;;;;12.02;4.80;;;15.70;1.00;;;;;;5017339;28;20078;-85
2023/10/13 03:12:40;;;;;;;12.93;4.28;;;15.60;1.00;;;;;;4997548;28;20060;-84
2023/10/13 03:15:31;;;;;;;15.20;4.85;;;15.50;1.00;;;;;;5020130;28;20091;-83
2023/10/13 03:18:20;;;;;;;17.85;4.22;;;15.50;1.00;;;;;;5000599;28;20505;-82
2023/10/13 03:21:07;;;;;;;9.93;4.82;;;15.50;1.00;;;;;;5018039;28;20034;-84
2023/10/13 03:24:07;;;;;;;15.38;5.60;;;15.50;1.00;;;;;;5015234;28;20042;-84
2023/10/13 03:26:59;;;;;;;12.63;4.60;;;15.40;1.00;;;;;;5013652;28;20050;-84
2023/10/13 03:29:47;;;;;;;11.88;4.20;;;15.50;1.00;;;;;;4994140;28;20081;-84
2023/10/13 03:32:35;;;;;;;10.82;4.20;;;15.60;1.00;;;;;;5007168;28;20088;-84
2023/10/13 03:35:31;;;;;;;10.52;4.50;;;15.70;1.00;;;;;;5014826;28;20135;-85
2023/10/13 03:38:18;;;;;;;13.77;4.22;;;15.80;1.00;;;;;;5013410;28;20050;-83
2023/10/13 03:41:24;;;;;;;6.85;4.18;;;15.80;1.00;;;;;;5012229;28;20204;-83
2023/10/13 03:44:18;;;;;;;6.65;3.80;;;15.90;1.00;;;;;;5007084;28;20466;-85
2023/10/13 03:47:17;;;;;;;12.38;5.28;;;16.00;1.00;;;;;;5016430;28;20042;-83
2023/10/13 03:50:29;;;;;;;13.48;4.22;;;16.00;1.00;;;;;;4994922;28;20459;-83
2023/10/13 03:53:19;;;;;;;13.35;4.55;;;16.00;1.00;;;;;;5012573;28;20061;-83
2023/10/13 03:56:12;;;;;;;11.23;4.55;;;16.10;1.00;;;;;;5012380;28;20058;-82
2023/10/13 03:59:09;;;;;;;10.82;4.57;;;16.10;1.00;;;;;;5015206;28;20050;-84
2023/10/13 04:02:02;;;;;;;8.27;4.20;;;16.10;1.00;;;;;;5005340;28;20042;-83
2023/10/13 04:04:53;;;;;;;16.05;4.28;;;16.10;1.00;;;;;;5010214;28;20049;-85
2023/10/13 04:08:44;;;;;;;13.38;3.90;;;16.00;1.00;;;;;;5014839;28;20517;-84
2023/10/13 04:17:11;;;;;;;6.55;3.95;;;16.00;1.00;;;;;;4942633;28;20047;-84
2023/10/13 04:26:05;;;;;;;14.10;4.30;;;15.80;1.00;;;;;;5009697;28;20121;-85
2023/10/13 04:28:53;;;;;;;12.98;4.45;;;15.70;1.00;;;;;;5014718;28;20164;-85
2023/10/13 04:31:55;;;;;;;14.95;4.50;;;15.70;1.00;;;;;;5004260;28;20053;-84
2023/10/13 04:34:45;;;;;;;9.20;4.60;;;15.70;1.00;;;;;;5005343;28;20050;-84
2023/10/13 04:37:48;;;;;;;9.30;3.67;;;15.70;1.00;;;;;;5014282;28;20240;-83
2023/10/13 04:40:58;;;;;;;13.00;5.47;;;15.60;1.00;;;;;;4999446;28;20057;-83
2023/10/13 04:44:04;;;;;;;11.88;4.18;;;15.70;1.00;;;;;;5001697;28;20277;-84
2023/10/13 04:47:07;;;;;;;12.25;4.70;;;15.60;1.00;;;;;;5010398;28;20446;-84
2023/10/13 04:50:00;;;;;;;7.75;3.75;;;15.70;1.00;;;;;;5001839;28;20156;-84
2023/10/13 04:53:02;;;;;;;11.00;4.40;;;15.70;1.00;;;;;;5024515;28;20472;-84
2023/10/13 05:46:20;;;;;;;10.75;4.85;;;14.50;1.00;;;;;;5014858;28;20049;-84
2023/10/13 05:52:07;;;;;;;11.52;4.45;;;14.40;1.00;;;;;;5013576;28;20107;-84
2023/10/13 06:29:19;;;;;;;10.30;4.30;;;15.70;1.00;;;;;;5012171;28;20052;-83
2023/10/13 06:32:11;;;;;;;14.00;4.35;;;16.00;1.00;;;;;;5013042;28;20038;-84
2023/10/13 06:35:07;;;;;;;15.73;4.40;;;16.10;1.00;;;;;;5010526;28;20447;-84
2023/10/13 06:37:59;;;;;;;13.65;5.18;;;16.30;1.00;;;;;;5013225;28;20119;-84
2023/10/13 06:40:48;;;;;;;11.98;4.13;;;16.40;1.00;;;;;;5015689;28;20053;-85
2023/10/13 06:43:39;;;;;;;16.80;4.13;;;16.50;1.00;;;;;;5012673;28;20050;-84
2023/10/13 06:46:28;;;;;;;12.52;4.40;;;16.70;1.00;;;;;;5011229;28;20049;-83
2023/10/13 06:49:18;;;;;;;13.38;4.25;;;16.90;1.00;;;;;;5017687;28;20489;-83
2023/10/13 06:52:10;;;;;;;10.10;4.90;;;17.10;1.00;;;;;;5017504;28;20176;-84
2023/10/13 06:54:57;;;;;;;10.95;3.90;;;17.20;1.00;;;;;;5016415;28;20046;-84
2023/10/13 06:57:49;;;;;;;13.93;4.00;;;17.40;1.00;;;;;;5011723;28;20050;-82
2023/10/13 07:00:38;;;;;;;10.05;4.40;;;17.50;1.00;;;;;;5011942;28;20143;-81
2023/10/13 07:03:28;;;;;;;9.25;4.43;;;17.60;1.00;;;;;;5013576;28;20061;-83
2023/10/13 07:06:19;;;;;;;10.63;4.28;;;17.70;1.00;;;;;;5017500;28;20072;-83
2023/10/13 07:09:15;;;;;;;8.13;3.60;;;17.80;1.00;;;;;;5012152;28;20057;-83
2023/10/13 07:12:06;;;;;;;12.00;4.47;;;18.10;1.00;;;;;;5011931;28;20050;-83
2023/10/13 07:15:10;;;;;;;10.38;4.10;;;18.20;1.00;;;;;;5010481;28;20045;-84
2023/10/13 07:17:59;;;;;;;13.27;4.00;;;18.50;1.00;;;;;;5009801;28;20053;-84
2023/10/13 07:20:47;;;;;;;11.27;4.28;;;18.60;1.00;;;;;;5015354;28;20445;-84
2023/10/13 07:23:35;;;;;;;10.63;4.25;;;18.70;1.00;;;;;;5016042;28;20046;-84
2023/10/13 07:26:23;;;;;;;9.82;3.88;;;18.70;1.00;;;;;;5016998;28;20078;-83
2023/10/13 07:29:11;;;;;;;8.13;3.65;;;18.90;1.00;;;;;;5019499;28;20120;-83
2023/10/13 07:32:02;;;;;;;8.05;3.70;;;18.80;1.00;;;;;;5017414;28;20084;-84
2023/10/13 07:34:50;;;;;;;10.48;3.70;;;18.60;1.00;;;;;;5016169;28;20050;-82
2023/10/13 07:37:41;;;;;;;14.18;3.85;;;18.50;1.00;;;;;;5016079;28;20126;-83
2023/10/13 07:43:21;;;;;;;9.85;3.80;;;18.40;1.00;;;;;;5015896;28;20077;-83
2023/10/13 07:46:09;;;;;;;11.70;4.05;;;18.20;1.00;;;;;;5004223;28;20042;-84
2023/10/13 07:49:11;;;;;;;12.95;3.85;;;18.10;1.00;;;;;;5009830;28;20045;-84
2023/10/13 07:52:19;;;;;;;10.80;4.40;;;18.00;1.00;;;;;;5012796;28;20121;-84
2023/10/13 07:57:59;;;;;;;6.72;3.38;;;18.30;1.00;;;;;;5014994;28;20053;-84
2023/10/13 08:03:44;;;;;;;12.70;3.88;;;18.90;1.00;;;;;;5010612;28;20126;-83
2023/10/13 08:06:31;;;;;;;12.73;4.38;;;18.80;1.00;;;;;;5013998;28;20309;-84
2023/10/13 08:09:40;;;;;;;10.48;3.95;;;18.70;1.00;;;;;;5014829;28;20493;-85
2023/10/13 08:12:27;;;;;;;8.13;3.67;;;18.90;1.00;;;;;;5008301;28;20116;-84
2023/10/13 08:18:33;;;;;;;13.30;3.83;;;19.30;1.00;;;;;;5002839;28;20073;-82
2023/10/13 08:21:24;;;;;;;9.90;3.50;;;19.40;1.00;;;;;;5014859;28;20528;-85
2023/10/13 08:24:15;;;;;;;10.77;3.70;;;19.40;1.00;;;;;;5015784;28;20100;-84
2023/10/13 08:27:33;;;;;;;8.27;3.38;;;19.70;1.00;;;;;;5014515;28;20569;-84
2023/10/13 08:30:28;;;;;;;18.33;3.72;;;20.00;1.00;;;;;;5014183;28;20045;-83
2023/10/13 08:33:23;;;;;;;13.55;3.60;;;20.10;1.00;;;;;;5010422;28;20061;-83
2023/10/13 08:36:29;;;;;;;9.13;3.30;;;20.20;1.00;;;;;;5014948;28;20048;-84
2023/10/13 08:42:52;;;;;;;8.73;3.28;;;20.70;1.00;;;;;;4996258;28;20061;-84
2023/10/13 08:48:36;;;;;;;10.03;3.37;;;21.00;1.00;;;;;;5013595;28;20049;-83
2023/10/13 08:51:43;;;;;;;9.27;3.50;;;21.10;1.00;;;;;;5006309;28;20378;-85
2023/10/13 08:54:38;;;;;;;9.93;3.55;;;21.20;1.00;;;;;;5014422;28;20042;-84
2023/10/13 08:57:34;;;;;;;15.20;3.05;;;21.30;1.00;;;;;;5014342;28;20177;-85
2023/10/13 09:03:39;;;;;;;10.07;3.60;;;21.70;1.00;;;;;;5016458;28;20688;-82
2023/10/13 09:06:27;;;;;;;14.00;4.13;;;21.60;1.00;;;;;;5010018;28;20060;-85
2023/10/13 09:09:39;;;;;;;7.15;3.33;;;21.60;1.00;;;;;;5013720;28;20189;-85
2023/10/13 09:15:59;;;;;;;12.52;3.40;;;21.90;1.00;;;;;;5013734;28;20140;-85
2023/10/13 09:18:52;;;;;;;8.55;3.40;;;22.40;1.00;;;;;;5013547;28;20053;-83
2023/10/13 09:24:29;;;;;;;11.63;3.03;;;23.30;1.00;;;;;;5013605;28;20216;-83
2023/10/13 09:27:17;;;;;;;14.07;3.85;;;23.50;1.00;;;;;;5016907;28;20050;-84
2023/10/13 09:30:24;;;;;;;13.85;3.47;;;23.90;1.00;;;;;;5022577;28;20049;-85
2023/10/13 09:33:28;;;;;;;10.93;3.00;;;24.00;1.00;;;;;;5017757;28;20088;-84
2023/10/13 09:36:17;;;;;;;12.45;3.47;;;24.20;1.00;;;;;;5013527;28;20386;-85
2023/10/13 09:39:29;;;;;;;9.55;3.05;;;24.70;1.00;;;;;;5015911;28;20057;-84
2023/10/13 09:42:19;;;;;;;12.38;3.03;;;25.10;1.00;;;;;;5013251;28;20046;-84
2023/10/13 09:45:12;;;;;;;12.20;3.58;;;25.20;1.00;;;;;;5013565;28;20045;-83
2023/10/13 09:48:16;;;;;;;6.88;3.17;;;25.30;1.00;;;;;;5014983;28;20048;-85
2023/10/13 09:51:19;;;;;;;9.48;3.03;;;26.30;1.00;;;;;;5008701;28;20046;-83
2023/10/13 09:54:19;;;;;;;9.02;3.28;;;26.30;1.00;;;;;;5014228;28;20605;-82
2023/10/13 09:57:24;;;;;;;14.02;3.15;;;26.30;1.00;;;;;;5017005;28;20184;-83
2023/10/13 10:00:46;;;;;;;11.10;2.88;;;26.90;1.00;;;;;;5025357;28;20053;-83
2023/10/13 10:06:28;;;;;;;6.90;2.70;;;27.30;1.00;;;;;;5013080;28;20552;-83
2023/10/13 10:09:22;;;;;;;10.20;2.95;;;27.70;1.00;;;;;;5022297;28;20191;-85
2023/10/13 10:12:40;;;;;;;9.98;3.00;;;27.10;1.00;;;;;;5013516;28;20378;-83
2023/10/13 10:15:35;;;;;;;8.98;3.40;;;27.20;1.00;;;;;;4986514;28;20184;-84
2023/10/13 10:18:27;;;;;;;8.02;3.17;;;27.90;1.00;;;;;;5013034;28;20489;-84
2023/10/13 10:21:15;;;;;;;7.00;2.80;;;27.60;1.00;;;;;;5001015;28;20056;-83
2023/10/13 10:24:14;;;;;;;9.70;2.83;;;27.00;1.00;;;;;;5023369;28;20064;-85
2023/10/13 10:27:04;;;;;;;10.45;2.75;;;26.70;1.00;;;;;;5013839;28;20049;-85
2023/10/13 10:29:57;;;;;;;9.13;3.15;;;27.50;1.00;;;;;;5014291;28;20045;-85
2023/10/13 10:32:53;;;;;;;9.23;3.28;;;28.70;1.00;;;;;;4998942;28;20458;-84
2023/10/13 10:35:44;;;;;;;8.45;2.92;;;28.80;1.00;;;;;;4999609;28;20041;-84
2023/10/13 10:38:33;;;;;;;10.57;2.83;;;28.80;1.00;;;;;;5013327;28;20073;-84
2023/10/13 10:44:43;;;;;;;14.32;3.47;;;28.00;1.00;;;;;;5013557;28;20046;-85
2023/10/13 10:47:32;;;;;;;11.23;2.78;;;27.30;1.00;;;;;;5012440;28;20141;-85
2023/10/13 10:50:34;;;;;;;8.90;3.38;;;27.10;1.00;;;;;;5015330;28;20068;-84
2023/10/13 10:53:33;;;;;;;11.27;3.80;;;26.60;1.00;;;;;;5012890;28;20061;-82
2023/10/13 10:56:36;;;;;;;11.85;2.83;;;26.60;1.00;;;;;;5005514;28;20046;-86
2023/10/13 10:59:25;;;;;;;7.22;3.00;;;27.10;1.00;;;;;;5016412;28;20084;-85
2023/10/13 11:02:18;;;;;;;6.97;2.58;;;27.60;1.00;;;;;;5021580;28;20053;-82
2023/10/13 11:05:09;;;;;;;6.93;2.75;;;27.30;1.00;;;;;;5023897;28;20053;-85
2023/10/13 11:07:57;;;;;;;7.95;3.17;;;27.70;1.00;;;;;;5024045;28;20042;-85
2023/10/13 11:10:48;;;;;;;7.30;2.80;;;27.50;1.00;;;;;;5012207;28;20118;-85
2023/10/13 11:13:50;;;;;;;7.40;2.88;;;27.10;1.00;;;;;;5025231;28;20112;-83
2023/10/13 11:16:50;;;;;;;9.48;3.22;;;27.00;1.00;;;;;;5019646;28;20061;-83
2023/10/13 11:19:42;;;;;;;10.82;3.03;;;27.00;1.00;;;;;;5023511;28;20058;-82
2023/10/13 11:22:46;;;;;;;13.05;3.22;;;27.30;1.00;;;;;;5022210;28;20073;-84
2023/10/13 11:25:38;;;;;;;8.45;3.05;;;27.40;1.00;;;;;;5012567;28;20045;-83
2023/10/13 11:28:29;;;;;;;13.20;3.00;;;27.90;1.00;;;;;;5024033;28;20128;-83
2023/10/13 11:31:19;;;;;;;9.48;3.08;;;28.40;1.00;;;;;;5018430;28;20042;-85
2023/10/13 11:34:11;;;;;;;9.48;3.17;;;28.00;1.00;;;;;;5018258;28;20073;-84
2023/10/13 11:37:28;;;;;;;8.55;3.28;;;28.50;1.00;;;;;;5014595;28;20054;-83
2023/10/13 11:40:12;;;;;;;9.77;3.00;;;28.40;1.00;;;;;;5016324;28;20052;-83
2023/10/13 11:43:04;;;;;;;6.95;3.10;;;28.60;1.00;;;;;;5024149;28;20099;-83
2023/10/13 11:45:55;;;;;;;7.35;2.83;;;29.50;1.00;;;;;;5007662;28;20107;-85
2023/10/13 11:48:44;;;;;;;7.30;3.13;;;29.90;1.00;;;;;;5015295;28;20038;-85
2023/10/13 11:51:38;;;;;;;8.27;2.60;;;30.50;1.00;;;;;;5006946;28;20386;-86
2023/10/13 11:54:26;;;;;;;7.60;2.70;;;30.30;1.00;;;;;;5017919;28;20069;-84
2023/10/13 11:57:16;;;;;;;9.32;2.63;;;30.40;1.00;;;;;;5020395;28;20046;-87
2023/10/13 12:00:27;;;;;;;8.82;2.95;;;30.40;1.00;;;;;;5017063;28;20371;-85
2023/10/13 12:12:11;;;;;;;8.20;3.00;;;31.40;1.00;;;;;;5016859;28;20120;-83
2023/10/13 12:15:09;;;;;;;7.22;2.60;;;32.00;1.00;;;;;;5017524;28;20141;-83
2023/10/13 12:17:57;;;;;;;8.27;3.47;;;31.80;1.00;;;;;;5017901;28;20049;-84
2023/10/13 12:20:45;;;;;;;11.45;2.90;;;30.80;1.00;;;;;;5016061;28;20045;-83
2023/10/13 12:23:36;;;;;;;9.35;3.53;;;31.00;1.00;;;;;;5017688;28;20049;-84
2023/10/13 12:26:32;;;;;;;9.32;3.30;;;31.60;1.00;;;;;;5018150;28;20053;-83
2023/10/13 12:54:23;;;;;;;8.15;2.70;;;31.50;1.00;;;;;;4899247;29;20116;-81
2023/10/13 12:57:13;;;;;;;;;;;31.10;1.00;;;;;;4894955;29;20048;-84
2023/10/13 13:00:01;;;;;;;7.10;3.00;;;30.80;1.00;;;;;;4897028;29;20324;-83
2023/10/13 13:02:51;;;;;;;6.75;2.55;;;30.80;1.00;;;;;;4891002;29;20040;-84
2023/10/13 13:05:44;;;;;;;7.53;2.40;;;30.50;1.00;;;;;;4901035;29;20433;-84
2023/10/13 13:08:35;;;;;;;8.32;3.03;;;30.80;1.00;;;;;;4894796;29;20053;-84
2023/10/13 13:11:23;;;;;;;5.65;2.58;;;30.30;1.00;;;;;;4886108;29;20236;-86
2023/10/13 13:14:13;;;;;;;9.38;2.65;;;30.30;1.00;;;;;;4904972;29;20366;-86
2023/10/13 13:17:07;;;;;;;11.85;3.15;;;29.80;1.00;;;;;;4890218;29;20052;-85
2023/10/13 13:19:54;;;;;;;7.20;2.90;;;29.60;1.00;;;;;;4893223;29;20164;-83
2023/10/13 13:22:45;;;;;;;14.40;3.13;;;30.40;1.00;;;;;;4894910;29;20041;-84
2023/10/13 13:25:33;;;;;;;6.68;2.70;;;30.70;1.00;;;;;;4906321;29;20135;-83
2023/10/13 13:28:23;;;;;;;11.05;2.47;;;30.90;1.00;;;;;;4894548;29;20384;-85
2023/10/13 13:31:12;;;;;;;13.25;2.90;;;31.10;1.00;;;;;;4899656;29;20518;-84
2023/10/13 13:34:03;;;;;;;4.18;2.13;;;30.80;1.00;;;;;;4909422;29;20067;-84
2023/10/13 13:36:53;;;;;;;8.15;2.53;;;31.00;1.00;;;;;;4893915;29;20066;-85
2023/10/13 13:39:45;;;;;;;6.88;2.60;;;30.70;1.00;;;;;;4900846;29;20279;-86
2023/10/13 13:42:36;;;;;;;10.05;2.50;;;30.60;1.00;;;;;;4897874;29;20049;-87
2023/10/13 13:45:27;;;;;;;6.05;2.80;;;30.70;1.00;;;;;;4902724;29;20148;-83
2023/10/13 13:48:20;;;;;;;4.93;2.40;;;31.10;1.00;;;;;;4913418;29;20470;-84
2023/10/13 13:51:14;;;;;;;;;;;31.70;1.00;;;;;;4941532;28;20473;-84
2023/10/13 13:54:06;;;;;;;12.65;3.13;;;31.60;1.00;;;;;;4933949;28;19923;-84
2023/10/13 13:56:57;;;;;;;13.70;2.90;;;31.00;1.00;;;;;;4930581;29;20056;-83
2023/10/13 13:59:45;;;;;;;6.75;3.47;;;31.10;1.00;;;;;;4926820;29;20052;-81
2023/10/13 14:02:35;;;;;;;7.03;2.50;;;30.90;1.00;;;;;;4928453;29;20096;-84
2023/10/13 14:05:28;;;;;;;8.23;2.30;;;30.60;1.00;;;;;;4933002;29;20036;-84
2023/10/13 14:08:16;;;;;;;5.15;2.75;;;30.00;1.00;;;;;;4917116;28;20044;-85
2023/10/13 14:11:13;;;;;;;6.72;2.33;;;30.00;1.00;;;;;;4906633;29;20040;-83
2023/10/13 14:14:12;;;;;;;9.63;2.47;;;29.90;1.00;;;;;;4922592;29;20048;-84
2023/10/13 14:17:09;;;;;;;5.57;2.40;;;29.80;1.00;;;;;;4923916;29;20048;-84
2023/10/13 14:19:59;;;;;;;8.45;2.50;;;29.90;1.00;;;;;;4913368;29;20079;-84
2023/10/13 14:22:52;;;;;;;7.15;2.40;;;29.70;1.00;;;;;;4926140;28;20060;-84
2023/10/13 14:25:44;;;;;;;6.97;2.10;;;29.70;1.00;;;;;;4929250;29;20048;-82
2023/10/13 14:28:34;;;;;;;6.72;2.38;;;30.10;1.00;;;;;;4932716;29;20044;-83
2023/10/13 14:31:22;;;;;;;6.93;2.40;;;30.10;1.00;;;;;;4936010;29;20078;-82
2023/10/13 14:34:12;;;;;;;5.72;2.08;;;29.50;1.00;;;;;;4918257;29;20071;-81
2023/10/13 14:36:59;;;;;;;5.60;2.20;;;29.60;1.00;;;;;;4933161;29;20095;-83
2023/10/13 14:39:48;;;;;;;7.50;2.08;;;29.30;1.00;;;;;;4949373;28;20096;-84
2023/10/13 14:42:36;;;;;;;6.05;2.45;;;29.70;1.00;;;;;;4937238;29;20044;-87
2023/10/13 14:45:23;;;;;;;9.18;2.33;;;30.00;1.00;;;;;;4933634;29;20067;-86
2023/10/13 14:48:12;;;;;;;6.35;2.20;;;29.60;1.00;;;;;;4935938;28;20134;-86
2023/10/13 14:51:08;;;;;;;9.90;2.20;;;29.40;1.00;;;;;;4942460;29;20036;-86
2023/10/13 14:53:59;;;;;;;4.72;1.77;;;29.10;1.00;;;;;;4945450;29;20380;-87
2023/10/13 14:56:49;;;;;;;5.65;2.22;;;29.00;1.00;;;;;;4943749;29;20048;-87
2023/10/13 14:59:39;;;;;;;5.50;2.13;;;28.70;1.00;;;;;;4945171;29;20056;-84
2023/10/13 15:02:26;;;;;;;8.40;2.40;;;28.40;1.00;;;;;;4930052;28;20057;-86
2023/10/13 15:05:16;;;;;;;12.85;3.67;;;28.50;1.00;;;;;;4920713;29;20441;-86
2023/10/13 15:08:06;;;;;;;8.90;2.28;;;28.70;1.00;;;;;;4929651;29;20125;-86
2023/10/13 15:10:53;;;;;;;5.95;2.53;;;28.60;1.00;;;;;;4938426;29;20099;-87
2023/10/13 15:13:41;;;;;;;5.20;2.05;;;28.30;1.00;;;;;;4929337;29;20432;-87
2023/10/13 15:16:31;;;;;;;7.05;2.28;;;28.40;1.00;;;;;;4917631;29;20048;-87
2023/10/13 15:19:21;;;;;;;5.97;2.00;;;28.40;1.00;;;;;;4938583;29;20040;-85
2023/10/13 15:22:12;;;;;;;5.55;2.30;;;28.30;1.00;;;;;;4928011;28;20049;-85
2023/10/13 15:25:09;;;;;;;2.88;1.70;;;28.10;1.00;;;;;;4925929;29;20062;-84
2023/10/13 15:28:05;;;;;;;6.78;2.08;;;28.20;1.00;;;;;;4939492;29;20048;-84
2023/10/13 15:31:09;;;;;;;8.50;2.10;;;28.20;1.00;;;;;;4935384;29;20043;-86
2023/10/13 15:33:59;;;;;;;6.88;2.33;;;28.50;1.00;;;;;;4931475;29;20417;-85
2023/10/13 15:36:52;;;;;;;7.72;2.03;;;28.00;1.00;;;;;;4934630;29;20417;-85
2023/10/13 15:39:39;;;;;;;2.55;1.90;;;28.00;1.00;;;;;;4935663;29;20063;-84
2023/10/13 15:42:26;;;;;;;8.98;2.33;;;28.00;1.00;;;;;;4939976;28;20491;-85
2023/10/13 15:45:16;;;;;;;5.57;2.10;;;27.90;1.00;;;;;;4939221;28;20633;-83
2023/10/13 15:48:07;;;;;;;7.90;2.22;;;27.50;1.00;;;;;;4938651;29;20516;-85
2023/10/13 15:50:57;;;;;;;6.65;1.95;;;27.20;1.00;;;;;;4923854;29;20048;-85
2023/10/13 15:53:47;;;;;;;16.35;2.28;;;27.00;1.00;;;;;;4938261;29;20074;-83
2023/10/13 15:56:39;;;;;;;6.78;2.05;;;26.90;1.00;;;;;;4939066;29;20111;-85
2023/10/13 15:59:26;;;;;;;3.42;2.30;;;26.80;1.00;;;;;;4938381;29;20467;-84
2023/10/13 16:02:16;;;;;;;4.57;2.30;;;26.50;1.00;;;;;;4932949;29;20063;-85
2023/10/13 16:05:06;;;;;;;5.00;1.90;;;25.80;1.00;;;;;;4939660;28;20444;-86
2023/10/13 16:07:54;;;;;;;5.97;2.40;;;25.40;1.00;;;;;;4939321;29;20040;-84
2023/10/13 16:10:41;;;;;;;8.20;2.10;;;25.00;1.00;;;;;;4937193;28;20047;-85
2023/10/13 16:13:29;;;;;;;5.18;2.28;;;24.80;1.00;;;;;;4935376;29;20181;-85
2023/10/13 16:16:23;;;;;;;7.18;2.85;;;24.60;1.00;;;;;;4927914;29;20063;-85
2023/10/13 16:19:11;;;;;;;8.13;3.60;;;24.30;1.00;;;;;;4938330;29;20062;-84
2023/10/13 16:21:58;;;;;;;5.32;2.72;;;24.10;1.00;;;;;;4935960;29;20062;-84
2023/10/13 16:24:47;;;;;;;8.18;2.33;;;23.90;1.00;;;;;;4935668;29;20226;-85
2023/10/13 16:27:38;;;;;;;5.00;2.63;;;23.60;1.00;;;;;;4928836;29;20384;-86
2023/10/13 16:30:28;;;;;;;7.70;2.37;;;23.50;1.00;;;;;;4937586;28;20113;-85
2023/10/13 16:33:18;;;;;;;7.68;2.38;;;23.40;1.00;;;;;;4926275;29;20135;-84
2023/10/13 16:36:09;;;;;;;6.90;2.53;;;23.20;1.00;;;;;;4947014;29;20376;-85
2023/10/13 16:38:57;;;;;;;5.47;2.50;;;23.10;1.00;;;;;;4929892;29;20145;-85
2023/10/13 16:41:45;;;;;;;11.15;2.70;;;23.00;1.00;;;;;;4938298;29;20202;-84
2023/10/13 16:44:33;;;;;;;11.32;2.70;;;22.90;1.00;;;;;;4937878;29;20051;-85
2023/10/13 16:47:20;;;;;;;6.25;2.30;;;23.00;1.00;;;;;;4938846;29;20070;-85
2023/10/13 16:50:08;;;;;;;6.82;2.70;;;22.90;1.00;;;;;;4938756;28;20059;-85
2023/10/13 16:52:58;;;;;;;6.22;2.92;;;22.80;1.00;;;;;;4945269;29;20057;-86
2023/10/13 16:55:47;;;;;;;9.13;3.03;;;22.60;1.00;;;;;;4938603;28;20051;-86
2023/10/13 16:58:37;;;;;;;6.88;3.35;;;22.50;1.00;;;;;;4937343;29;20359;-85
2023/10/13 17:01:29;;;;;;;19.30;5.57;;;22.40;1.00;;;;;;4937634;28;20110;-85
2023/10/13 17:04:19;;;;;;;6.85;2.88;;;22.30;1.00;;;;;;4931517;29;20461;-83
2023/10/13 17:07:08;;;;;;;9.63;2.67;;;22.30;1.00;;;;;;4937899;29;20051;-86
2023/10/13 17:09:56;;;;;;;4.85;2.60;;;22.20;1.00;;;;;;4905430;29;20160;-84
2023/10/13 17:12:44;;;;;;;8.73;3.30;;;22.10;1.00;;;;;;4935313;29;20047;-85
2023/10/13 17:15:33;;;;;;;6.88;3.17;;;22.00;1.00;;;;;;4938708;28;20055;-83
2023/10/13 17:18:20;;;;;;;8.40;3.80;;;22.00;1.00;;;;;;4946632;29;20059;-84
2023/10/13 17:21:18;;;;;;;50.78;25.48;;;21.90;1.00;;;;;;4925690;29;20059;-85
2023/10/13 17:24:08;;;;;;;8.15;3.00;;;21.80;1.00;;;;;;4936719;29;20063;-85
2023/10/13 17:26:55;;;;;;;8.40;3.33;;;21.60;1.00;;;;;;4935032;29;20178;-84
2023/10/13 17:29:44;;;;;;;9.57;2.90;;;21.60;1.00;;;;;;4937210;29;20047;-84
2023/10/13 17:32:35;;;;;;;9.15;3.03;;;21.70;1.00;;;;;;4937056;29;20123;-83
2023/10/13 17:35:25;;;;;;;8.13;3.08;;;21.90;1.00;;;;;;4938359;29;20047;-84
2023/10/13 17:38:14;;;;;;;11.20;3.80;;;22.00;1.00;;;;;;4938672;29;20059;-85
2023/10/13 17:41:06;;;;;;;9.30;3.08;;;22.00;1.00;;;;;;4937594;28;20055;-84
2023/10/13 17:43:55;;;;;;;9.13;3.20;;;22.00;1.00;;;;;;4932059;29;20051;-85
2023/10/13 17:46:43;;;;;;;9.02;3.95;;;22.10;1.00;;;;;;4934657;29;20122;-86
2023/10/13 17:49:31;;;;;;;5.80;2.80;;;22.20;1.00;;;;;;4927406;29;20075;-85
2023/10/13 17:52:18;;;;;;;11.25;3.60;;;22.20;1.00;;;;;;4937747;29;20054;-84
2023/10/13 17:55:06;;;;;;;11.48;3.05;;;22.20;1.00;;;;;;4936689;29;20044;-85
2023/10/13 17:57:55;;;;;;;10.57;3.33;;;22.20;1.00;;;;;;4920412;29;20062;-85
2023/10/13 18:00:45;;;;;;;9.10;3.38;;;22.20;1.00;;;;;;4924814;29;20060;-85